Flight Track Log - Related Links

Times and Time Zones

All times are in EDT time to prevent confusion due to time zone crossing. See the N733GL flight status page for this flight to view local times or setup timezone preferences in your user account.

Time Position Orientation Groundspeed Altitude Reporting Facility
EDT Latitude Longitude Course Direction KTS MPH feet Rate Location/Type
Wed 10:33:58 AM 39.3500 -84.8500 334° Northwest 61 70 4,300  Level Cincinnati TRACON
Wed 10:35:16 AM 39.3667 -84.8667 322° Northwest 68 78 4,500 88 Climbing Cincinnati TRACON
Wed 10:36:15 AM 39.3794 -84.8794 322° Northwest 78 90 4,500 -48 Level Indianapolis Center
Wed 10:37:22 AM 39.4008 -84.8944 332° Northwest 78 90 4,400 -46 Descending Indianapolis Center
Wed 10:38:26 AM 39.4203 -84.9089 330° Northwest 77 89 4,400 48 Level Indianapolis Center
Wed 10:39:00 AM 39.4245 -84.8774 334° Northwest  Level Estimated
Wed 10:39:28 AM 39.4408 -84.9194 338° Northwest 78 90 4,500  Level Indianapolis Center
Wed 10:40:31 AM 39.4644 -84.9281 344° North 75 86 4,500  Level Indianapolis Center
Wed 10:41:32 AM 39.4808 -84.9369 337° Northwest 77 89 4,500  Level Indianapolis Center
Wed 10:42:33 AM 39.5061 -84.9522 335° Northwest 81 93 4,500  Level Indianapolis Center
Wed 10:43:34 AM 39.5258 -84.9639 335° Northwest 81 93 4,500  Level Indianapolis Center
Wed 10:44:35 AM 39.5478 -84.9736 341° North 81 93 4,500  Level Indianapolis Center
Wed 10:45:35 AM 39.5703 -84.9806 347° North 82 94 4,500  Level Indianapolis Center
Wed 10:46:36 AM 39.5925 -84.9875 346° North 85 98 4,500 49 Level Indianapolis Center
Wed 10:47:37 AM 39.6119 -85.0022 330° Northwest 78 90 4,600  Climbing Indianapolis Center
Wed 10:48:38 AM 39.6336 -85.0172 332° Northwest 79 91 4,500 -52 Descending Indianapolis Center
Wed 10:49:33 AM 39.6492 -85.0283 331° Northwest 80 92 4,500  Level Indianapolis Center
Wed 10:50:39 AM 39.6728 -85.0436 334° Northwest 78 90 4,500 -44 Level Indianapolis Center
Wed 10:51:49 AM 39.6914 -85.0625 322° Northwest 80 92 4,400 -46 Descending Indianapolis Center
Wed 10:52:50 AM 39.7067 -85.0814 316° Northwest 80 92 4,400  Level Indianapolis Center
Wed 10:53:52 AM 39.7239 -85.0967 326° Northwest 77 89 4,400 48 Level Indianapolis Center
Wed 10:54:54 AM 39.7428 -85.1089 334° Northwest 75 86 4,500 49 Climbing Indianapolis Center
Wed 10:55:55 AM 39.7678 -85.1231 336° Northwest 77 89 4,500  Level Indianapolis Center
Wed 10:56:57 AM 39.7872 -85.1361 333° Northwest 79 91 4,500  Level Indianapolis Center
Wed 10:57:59 AM 39.8081 -85.1464 339° North 79 91 4,500  Level Indianapolis Center
Wed 10:59:00 AM 39.8292 -85.1581 337° Northwest 80 92 4,500  Level Indianapolis Center
Wed 11:00:02 AM 39.8506 -85.1722 333° Northwest 81 93 4,500  Level Indianapolis Center
Wed 11:02:00 AM 39.8982 -85.1786 354° North  Level FlightAware Approximate
Wed 11:09:00 AM 40.0558 -85.2690 332° Northwest  Level FlightAware Approximate
Wed 11:10:00 AM 40.0773 -85.2841 332° Northwest  Level FlightAware Approximate

Login

Don't have an account? Register now (free) for customized features, flight alerts, and more!